Time;durP1;ratioP1;P1;durP2;ratioP2;P2;SDS_P1;SDS_P2;PMS_P1;PMS_P2;Temp;Humidity;BMP_temperature;BMP_pressure;BME280_temperature;BME280_humidity;BME280_pressure;Samples;Min_cycle;Max_cycle;Signal;HPM_P1;HPM_P2
2023/04/02 00:02:33;;;;;;;7.73;4.23;;;;;;;4.31;100.00;100134.03;5138060;55;1136703;-81
2023/04/02 00:07:40;;;;;;;11.28;4.75;;;;;;;4.30;100.00;100141.52;5140545;55;1136825;-77
2023/04/02 00:13:08;;;;;;;6.73;3.63;;;;;;;4.32;100.00;100154.05;5158749;55;1138861;-78
2023/04/02 00:18:20;;;;;;;4.90;3.93;;;;;;;4.32;100.00;100154.05;5101935;55;1136907;-79
2023/04/02 00:23:25;;;;;;;5.47;3.87;;;;;;;4.30;100.00;100158.99;5101312;55;1136769;-78
2023/04/02 00:28:31;;;;;;;5.92;4.08;;;;;;;4.35;100.00;100163.51;5173023;55;1136914;-79
2023/04/02 00:33:38;;;;;;;7.60;3.90;;;;;;;4.37;100.00;100167.73;5207831;55;1136835;-78
2023/04/02 00:38:45;;;;;;;6.63;4.53;;;;;;;4.34;100.00;100175.75;5144012;55;1136854;-81
2023/04/02 00:43:53;;;;;;;5.78;3.87;;;;;;;4.39;100.00;100178.12;5101424;56;1136758;-77
2023/04/02 00:49:32;;;;;;;13.23;6.10;;;;;;;4.39;100.00;100181.58;5120887;56;1136801;-78
2023/04/02 00:54:45;;;;;;;7.40;4.60;;;;;;;4.43;100.00;100182.25;5083058;55;1138652;-78
2023/04/02 01:00:07;;;;;;;10.20;4.73;;;;;;;4.39;100.00;100184.66;5156781;55;1136639;-79
2023/04/02 01:05:22;;;;;;;7.20;4.43;;;;;;;4.40;100.00;100190.28;5082463;56;1138740;-79
2023/04/02 01:10:41;;;;;;;5.93;3.83;;;;;;;4.38;100.00;100191.67;5085227;56;1138721;-79
2023/04/02 01:16:11;;;;;;;10.37;4.47;;;;;;;4.31;100.00;100200.79;5086721;56;1136772;-79
2023/04/02 01:21:57;;;;;;;8.63;4.80;;;;;;;4.23;100.00;100201.70;5076792;56;1139132;-79
2023/04/02 01:27:10;;;;;;;3.77;2.77;;;;;;;4.20;100.00;100207.95;5073209;56;1136647;-81
2023/04/02 01:32:20;;;;;;;8.63;4.72;;;;;;;4.21;100.00;100218.80;5091993;56;1136866;-77
2023/04/02 01:37:55;;;;;;;4.60;3.27;;;;;;;4.19;100.00;100219.81;5033355;56;1136679;-77
2023/04/02 01:43:23;;;;;;;6.05;4.08;;;;;;;4.15;100.00;100224.83;5036998;56;1136614;-78
2023/04/02 01:48:31;;;;;;;7.23;4.30;;;;;;;4.14;100.00;100235.77;5104125;55;1136758;-78
2023/04/02 01:53:37;;;;;;;7.63;4.10;;;;;;;4.15;100.00;100236.15;5188037;55;1136633;-78
2023/04/02 01:58:43;;;;;;;5.30;3.53;;;;;;;4.10;100.00;100255.67;5208074;55;1136840;-79
2023/04/02 02:03:51;;;;;;;3.43;2.60;;;;;;;4.16;100.00;100250.08;5106547;55;1136680;-79
2023/04/02 02:09:06;;;;;;;8.57;3.50;;;;;;;4.16;100.00;100248.30;5101031;56;1136857;-79
2023/04/02 02:14:27;;;;;;;6.43;3.17;;;;;;;4.16;100.00;100252.69;5044233;56;1136887;-78
2023/04/02 02:19:43;;;;;;;4.07;2.37;;;;;;;4.12;100.00;100257.74;5017167;57;1136882;-80
2023/04/02 02:24:50;;;;;;;6.27;2.40;;;;;;;4.12;100.00;100264.28;5017805;56;1136598;-79
2023/04/02 02:30:06;;;;;;;2.03;1.77;;;;;;;4.06;100.00;100270.69;5042655;56;1136677;-76
2023/04/02 02:35:25;;;;;;;5.43;1.87;;;;;;;3.97;100.00;100279.05;5099915;56;1136622;-79
2023/04/02 02:40:36;;;;;;;1.63;1.53;;;;;;;3.92;100.00;100286.75;5119820;55;1136675;-78
2023/04/02 02:45:43;;;;;;;2.87;1.35;;;;;;;3.86;100.00;100297.92;5151004;55;1136616;-78
2023/04/02 02:50:50;;;;;;;1.60;1.50;;;;;;;3.77;100.00;100297.12;5037289;57;1136763;-81
2023/04/02 02:56:00;;;;;;;2.40;1.67;;;;;;;3.73;100.00;100302.58;5016974;56;1136772;-78
2023/04/02 03:01:08;;;;;;;1.60;1.50;;;;;;;3.78;100.00;100305.34;5016891;56;1136564;-76
2023/04/02 03:06:19;;;;;;;1.52;1.25;;;;;;;3.81;100.00;100315.66;5112245;56;1136700;-79
2023/04/02 03:11:40;;;;;;;1.30;1.20;;;;;;;3.77;100.00;100323.27;5111160;56;1136711;-78
2023/04/02 03:16:50;;;;;;;2.07;1.50;;;;;;;3.78;100.00;100334.58;5102047;55;1136658;-80
2023/04/02 03:22:04;;;;;;;2.73;1.63;;;;;;;3.83;100.00;100340.39;5187839;55;1136757;-77
2023/04/02 03:27:22;;;;;;;1.87;1.52;;;;;;;3.84;100.00;100344.24;4960633;56;1136684;-77
2023/04/02 03:32:35;;;;;;;1.57;1.47;;;;;;;3.79;100.00;100344.97;5188048;55;1136530;-78
2023/04/02 03:37:57;;;;;;;1.22;1.12;;;;;;;3.76;100.00;100351.66;5188729;55;1136701;-75
2023/04/02 03:43:24;;;;;;;4.62;1.80;;;;;;;3.77;100.00;100358.58;5208578;55;1136779;-78
2023/04/02 03:48:44;;;;;;;2.20;1.20;;;;;;;3.77;100.00;100362.97;5116162;55;1136603;-74
2023/04/02 03:53:51;;;;;;;1.20;1.10;;;;;;;3.73;100.00;100374.50;5101307;56;1136795;-76
2023/04/02 03:59:33;;;;;;;2.10;1.50;;;;;;;3.74;100.00;100382.73;5121681;56;1136722;-78
2023/04/02 04:04:42;;;;;;;1.13;1.13;;;;;;;3.70;100.00;100397.73;5101539;56;1136727;-73
2023/04/02 04:09:51;;;;;;;1.30;1.25;;;;;;;3.66;100.00;100400.61;5101979;55;1136615;-76
2023/04/02 04:15:04;;;;;;;1.63;1.30;;;;;;;3.66;100.00;100417.15;5101770;56;1136588;-77
2023/04/02 04:20:20;;;;;;;6.12;1.67;;;;;;;3.66;100.00;100423.69;5123340;55;1137191;-74
2023/04/02 04:25:32;;;;;;;2.47;1.40;;;;;;;3.66;100.00;100437.22;5151183;55;1136648;-77
2023/04/02 04:31:05;;;;;;;3.17;1.90;;;;;;;3.67;100.00;100443.66;5156804;55;1136834;-75
2023/04/02 04:36:31;;;;;;;2.83;2.22;;;;;;;3.58;100.00;100453.28;5177136;56;1136788;-80
2023/04/02 04:41:43;;;;;;;4.77;2.03;;;;;;;3.52;100.00;100469.26;5143852;55;1136712;-79
2023/04/02 04:47:05;;;;;;;1.80;1.37;;;;;;;3.52;100.00;100472.72;5152970;55;1136593;-75
2023/04/02 04:52:36;;;;;;;2.30;1.20;;;;;;;3.54;100.00;100473.95;5201437;55;1136965;-78
2023/04/02 04:57:43;;;;;;;3.50;1.83;;;;;;;3.49;100.00;100481.20;5153513;55;1136839;-78
2023/04/02 05:03:19;;;;;;;4.27;2.10;;;;;;;3.52;100.00;100483.64;5108021;55;1136873;-75
2023/04/02 05:08:29;;;;;;;10.10;3.17;;;;;;;3.52;100.00;100500.64;4771995;60;1136729;-80
2023/04/02 05:14:00;;;;;;;4.47;2.17;;;;;;;3.49;100.00;100505.58;4960744;57;1138861;-75
2023/04/02 05:19:22;;;;;;;4.04;1.34;;;;;;;3.47;100.00;100507.87;4989853;56;1136812;-77
2023/04/02 05:24:48;;;;;;;5.00;1.47;;;;;;;3.44;100.00;100519.78;4902657;58;1136825;-78
2023/04/02 05:30:01;;;;;;;9.03;2.03;;;;;;;3.43;100.00;100532.47;4946791;56;1136865;-77
2023/04/02 05:35:10;;;;;;;10.10;3.80;;;;;;;3.40;100.00;100541.76;4979496;56;1136780;-77
2023/04/02 05:40:33;;;;;;;11.87;6.20;;;;;;;3.41;100.00;100543.45;5014613;56;1138792;-79
2023/04/02 05:45:42;;;;;;;2.75;1.50;;;;;;;3.42;100.00;100541.23;5037098;56;1138822;-78
2023/04/02 05:50:54;;;;;;;3.63;1.40;;;;;;;3.38;100.00;100556.20;5160049;55;1136779;-78
2023/04/02 05:56:20;;;;;;;3.67;1.75;;;;;;;3.37;100.00;100559.73;5106465;56;1136629;-80
2023/04/02 06:01:50;;;;;;;10.03;1.93;;;;;;;3.38;100.00;100555.36;5178863;55;1136690;-76
2023/04/02 06:07:17;;;;;;;14.43;4.23;;;;;;;3.40;100.00;100562.21;5189011;55;1138646;-77
2023/04/02 06:12:34;;;;;;;3.50;1.53;;;;;;;3.51;100.00;100570.88;5143649;55;1138742;-77
2023/04/02 06:18:06;;;;;;;3.70;1.70;;;;;;;3.58;100.00;100580.11;5096340;56;1136758;-79
2023/04/02 06:23:29;;;;;;;2.80;1.40;;;;;;;3.57;100.00;100584.95;5101402;55;1136878;-76
2023/04/02 06:28:50;;;;;;;9.95;1.72;;;;;;;3.64;100.00;100597.28;5173003;55;1136773;-77
2023/04/02 06:33:59;;;;;;;9.45;1.90;;;;;;;3.65;100.00;100594.59;5216723;55;1136635;-76
2023/04/02 06:39:13;;;;;;;3.40;1.60;;;;;;;3.78;100.00;100607.47;5188088;55;1136594;-77
2023/04/02 06:44:22;;;;;;;6.43;1.87;;;;;;;3.84;100.00;100613.69;5187635;55;1136622;-75
2023/04/02 06:50:05;;;;;;;28.33;9.10;;;;;;;3.91;100.00;100619.48;5055980;56;1136843;-77
2023/04/02 06:55:38;;;;;;;20.70;6.78;;;;;;;3.94;100.00;100634.20;5044178;56;1138823;-75
2023/04/02 07:00:48;;;;;;;21.13;7.33;;;;;;;3.95;100.00;100634.13;5015541;57;1138703;-76
2023/04/02 07:05:56;;;;;;;11.57;4.73;;;;;;;3.99;100.00;100645.27;5017092;56;1138715;-78
2023/04/02 07:11:02;;;;;;;8.17;5.30;;;;;;;4.00;100.00;100646.97;5051077;56;1138627;-79
2023/04/02 07:16:17;;;;;;;6.58;2.98;;;;;;;4.02;100.00;100649.90;5100453;55;1136768;-78
2023/04/02 07:21:24;;;;;;;10.67;4.83;;;;;;;4.08;100.00;100656.63;5100511;55;1136665;-77
2023/04/02 07:26:31;;;;;;;9.13;2.83;;;;;;;4.10;100.00;100677.87;5100400;55;1138855;-78
2023/04/02 07:31:39;;;;;;;5.47;2.47;;;;;;;4.06;100.00;100676.78;5208132;55;1136831;-75
2023/04/02 07:36:45;;;;;;;5.83;3.30;;;;;;;4.11;100.00;100688.73;5188024;55;1136748;-78
2023/04/02 07:42:00;;;;;;;13.37;3.80;;;;;;;4.15;100.00;100697.27;5188036;55;1136716;-78
2023/04/02 07:47:07;;;;;;;9.53;2.92;;;;;;;4.16;100.00;100702.42;5124848;55;1138760;-76
2023/04/02 07:52:13;;;;;;;9.28;2.67;;;;;;;4.20;100.00;100710.98;5156672;55;1136641;-74
2023/04/02 07:57:19;;;;;;;6.58;3.30;;;;;;;4.23;100.00;100713.00;5142459;55;1136629;-76
2023/04/02 08:02:25;;;;;;;11.47;3.10;;;;;;;4.30;100.00;100724.47;5071534;56;1136665;-75
2023/04/02 08:07:30;;;;;;;9.53;3.50;;;;;;;4.36;100.00;100728.95;5102491;56;1138788;-75
2023/04/02 08:12:36;;;;;;;9.53;2.83;;;;;;;4.38;100.00;100741.98;5121592;55;1136929;-75
2023/04/02 08:17:42;;;;;;;4.83;2.20;;;;;;;4.44;100.00;100754.76;5108379;55;1136598;-75
2023/04/02 08:22:50;;;;;;;8.83;3.03;;;;;;;4.41;100.00;100758.41;5122565;56;1136822;-74
2023/04/02 08:27:55;;;;;;;6.17;2.80;;;;;;;4.42;100.00;100769.27;5061994;55;1136703;-75
2023/04/02 08:33:01;;;;;;;7.80;3.07;;;;;;;4.47;100.00;100766.40;5110240;55;1136753;-76
2023/04/02 08:38:07;;;;;;;14.23;5.08;;;;;;;4.55;100.00;100774.75;5078383;56;1136930;-76
2023/04/02 08:43:29;;;;;;;8.63;3.83;;;;;;;4.64;100.00;100774.75;5105027;55;1138929;-75
2023/04/02 08:48:38;;;;;;;14.33;6.30;;;;;;;4.75;100.00;100778.98;5060979;56;1136674;-76
2023/04/02 08:53:44;;;;;;;16.47;4.47;;;;;;;4.90;100.00;100771.67;5097442;56;1138829;-75
2023/04/02 08:58:56;;;;;;;9.10;3.43;;;;;;;4.95;100.00;100776.23;5087907;56;1138708;-74
2023/04/02 09:04:05;;;;;;;8.33;5.03;;;;;;;5.07;100.00;100791.80;5056916;56;1141781;-77
2023/04/02 09:09:15;;;;;;;9.05;3.37;;;;;;;5.19;100.00;100796.45;5080237;55;1136838;-77
2023/04/02 09:14:44;;;;;;;8.33;3.40;;;;;;;5.29;100.00;100808.16;5026951;55;1136706;-78
2023/04/02 09:20:21;;;;;;;7.20;3.17;;;;;;;5.29;100.00;100819.50;5064520;56;1136847;-77
2023/04/02 09:25:26;;;;;;;4.57;1.87;;;;;;;5.35;100.00;100824.05;5095573;56;1136788;-76
2023/04/02 09:30:57;;;;;;;8.05;4.80;;;;;;;5.36;100.00;100826.56;5120714;55;1136682;-78
2023/04/02 09:36:03;;;;;;;8.07;3.87;;;;;;;5.40;100.00;100841.23;5137266;55;1136745;-79
2023/04/02 09:41:22;;;;;;;6.15;2.70;;;;;;;5.49;100.00;100839.93;5114870;55;1137059;-75
2023/04/02 09:46:28;;;;;;;7.53;3.83;;;;;;;5.57;100.00;100846.46;5120058;55;1136954;-78
2023/04/02 09:51:35;;;;;;;10.65;4.12;;;;;;;5.65;100.00;100860.02;5128254;55;1136783;-75
2023/04/02 09:56:43;;;;;;;8.03;4.13;;;;;;;5.76;100.00;100865.20;5149746;56;1138911;-78
2023/04/02 10:02:00;;;;;;;5.87;3.40;;;;;;;5.88;100.00;100871.11;5120623;55;1136932;-76
2023/04/02 10:07:06;;;;;;;5.87;3.63;;;;;;;5.90;100.00;100878.02;5134923;55;1136643;-75
2023/04/02 10:12:15;;;;;;;14.53;6.90;;;;;;;5.86;100.00;100893.50;5115424;55;1136813;-78
2023/04/02 10:17:30;;;;;;;10.30;2.73;;;;;;;5.82;100.00;100898.52;5070248;55;1138942;-81
2023/04/02 10:22:36;;;;;;;2.80;2.53;;;;;;;5.82;100.00;100900.28;5061916;56;1138780;-78
2023/04/02 10:27:54;;;;;;;6.83;2.80;;;;;;;5.78;100.00;100913.20;5034294;56;1136893;-79
2023/04/02 10:33:21;;;;;;;4.83;2.57;;;;;;;5.80;100.00;100918.77;5141077;55;1136790;-81
2023/04/02 10:38:48;;;;;;;13.27;3.93;;;;;;;5.88;100.00;100920.98;5134492;55;1136832;-78
2023/04/02 10:44:07;;;;;;;8.00;3.43;;;;;;;5.92;100.00;100926.03;5110120;55;1138741;-80
2023/04/02 10:49:42;;;;;;;9.20;5.23;;;;;;;5.96;100.00;100936.73;5173279;55;1136588;-80
2023/04/02 10:54:50;;;;;;;6.80;3.33;;;;;;;5.95;100.00;100948.20;5099574;56;1136741;-76
2023/04/02 11:00:09;;;;;;;4.23;2.33;;;;;;;5.92;100.00;100956.69;5119640;55;1136848;-78
2023/04/02 11:05:46;;;;;;;6.40;3.57;;;;;;;5.83;100.00;100943.52;5175788;55;1136716;-78
2023/04/02 11:11:11;;;;;;;11.27;4.40;;;;;;;5.88;100.00;100953.36;5088381;56;1136631;-78
2023/04/02 11:16:17;;;;;;;6.62;3.92;;;;;;;5.97;100.00;100964.70;5093538;56;1138926;-78
2023/04/02 11:22:06;;;;;;;11.73;4.37;;;;;;;6.06;100.00;100975.20;5138213;55;1136580;-79
2023/04/02 11:27:16;;;;;;;6.95;2.67;;;;;;;6.09;100.00;100980.77;4930375;57;1138811;-78
2023/04/02 11:32:27;;;;;;;2.45;2.00;;;;;;;6.09;100.00;100989.50;4858590;58;1136666;-77
2023/04/02 11:37:47;;;;;;;5.60;2.50;;;;;;;6.12;100.00;100998.50;4895978;57;1136863;-75
2023/04/02 11:42:53;;;;;;;4.73;2.50;;;;;;;6.19;100.00;100993.80;4960374;58;1136719;-74
2023/04/02 11:48:06;;;;;;;3.77;2.40;;;;;;;6.18;100.00;101002.14;4929834;57;1136814;-77
2023/04/02 11:53:18;;;;;;;6.97;3.70;;;;;;;6.13;100.00;101010.70;4923459;57;1136807;-77
2023/04/02 11:58:34;;;;;;;10.57;4.93;;;;;;;6.10;100.00;101015.29;4927618;57;1136843;-77
2023/04/02 12:04:10;;;;;;;10.43;6.00;;;;;;;6.06;100.00;101021.16;4986138;56;1138863;-76
2023/04/02 12:09:35;;;;;;;16.70;6.20;;;;;;;6.16;100.00;101030.72;4968294;57;1138752;-76
2023/04/02 12:14:47;;;;;;;20.37;9.33;;;;;;;6.24;100.00;101027.25;4976227;57;1138850;-76
2023/04/02 12:19:57;;;;;;;7.30;3.93;;;;;;;6.32;100.00;101033.79;4994193;57;1138721;-77
2023/04/02 12:25:38;;;;;;;10.37;5.53;;;;;;;6.39;100.00;101038.28;4974291;57;1136691;-76
2023/04/02 12:30:42;;;;;;;10.90;4.07;;;;;;;6.49;100.00;101041.27;4973757;57;1138739;-76
2023/04/02 12:35:50;;;;;;;9.43;3.50;;;;;;;6.55;100.00;101050.15;4977184;57;1138785;-73
2023/04/02 12:41:05;;;;;;;14.10;5.60;;;;;;;6.60;100.00;101054.22;4997472;57;1136613;-76
2023/04/02 12:46:14;;;;;;;15.40;6.80;;;;;;;6.57;100.00;101062.75;4984169;57;1139011;-75
2023/04/02 12:51:20;;;;;;;10.18;5.58;;;;;;;6.46;100.00;101064.59;4978335;57;1138774;-71
2023/04/02 12:56:26;;;;;;;9.10;5.33;;;;;;;6.43;100.00;101076.58;4995728;56;1138735;-69
2023/04/02 13:01:32;;;;;;;12.77;5.50;;;;;;;6.42;100.00;101079.28;4948596;56;1136632;-71
2023/04/02 13:06:43;;;;;;;18.77;7.53;;;;;;;6.41;100.00;101085.48;4947639;57;1138749;-71
2023/04/02 13:11:48;;;;;;;18.13;6.90;;;;;;;6.43;100.00;101085.77;4954061;57;1138880;-68
2023/04/02 13:16:55;;;;;;;10.17;4.80;;;;;;;6.43;100.00;101092.80;4993041;56;1138907;-73
2023/04/02 13:22:03;;;;;;;8.80;4.07;;;;;;;6.48;100.00;101098.22;4975860;56;1138950;-71
2023/04/02 13:27:10;;;;;;;10.33;2.87;;;;;;;6.48;100.00;101094.28;4975064;56;1136819;-69
2023/04/02 13:32:17;;;;;;;7.04;2.94;;;;;;;6.51;100.00;101097.22;4950674;57;1138990;-68
2023/04/02 13:37:22;;;;;;;8.13;4.10;;;;;;;6.53;100.00;101099.30;4984295;56;1136967;-72
2023/04/02 13:42:28;;;;;;;11.07;4.53;;;;;;;6.52;100.00;101103.71;4962782;57;1136722;-74
2023/04/02 13:47:33;;;;;;;10.72;3.45;;;;;;;6.53;100.00;101106.73;4973806;56;1138931;-71
2023/04/02 13:52:39;;;;;;;12.27;4.33;;;;;;;6.58;100.00;101115.66;5013639;56;1138843;-70
2023/04/02 13:57:45;;;;;;;9.70;4.35;;;;;;;6.60;100.00;101113.81;5049677;55;1138845;-71
2023/04/02 14:03:01;;;;;;;9.13;3.10;;;;;;;6.62;100.00;101118.06;5177180;55;1136694;-72
2023/04/02 14:08:23;;;;;;;6.50;3.67;;;;;;;6.65;100.00;101126.27;5108805;55;1136833;-73
2023/04/02 14:13:42;;;;;;;6.97;3.50;;;;;;;6.67;100.00;101129.20;5115638;55;1136841;-68
2023/04/02 14:19:01;;;;;;;8.27;3.23;;;;;;;6.66;100.00;101133.22;5158168;55;1136716;-72
2023/04/02 14:24:30;;;;;;;5.45;3.27;;;;;;;6.66;100.00;101139.79;5178553;55;1136629;-68
2023/04/02 14:30:01;;;;;;;30.80;12.27;;;;;;;6.66;100.00;101150.30;5120364;55;1136649;-66
2023/04/02 14:35:38;;;;;;;25.88;8.75;;;;;;;6.69;100.00;101151.01;5142999;55;1140805;-68
2023/04/02 14:41:13;;;;;;;15.37;4.83;;;;;;;6.76;100.00;101158.09;4904127;58;1138900;-66
2023/04/02 14:46:18;;;;;;;11.95;4.15;;;;;;;6.82;100.00;101166.14;4922770;58;1138833;-70
2023/04/02 14:51:58;;;;;;;6.80;2.98;;;;;;;6.81;100.00;101165.75;4962216;58;1138934;-69
2023/04/02 14:57:31;;;;;;;4.07;1.90;;;;;;;6.84;100.00;101171.70;4943920;57;1136837;-71
2023/04/02 15:03:17;;;;;;;6.30;2.33;;;;;;;6.85;100.00;101189.66;4926613;58;1136829;-70
2023/04/02 15:08:30;;;;;;;7.37;3.52;;;;;;;6.80;100.00;101188.56;4893998;58;1136777;-67
2023/04/02 15:13:55;;;;;;;2.87;1.90;;;;;;;6.78;100.00;101198.30;5035245;55;1136879;-69
2023/04/02 15:19:04;;;;;;;4.07;1.93;;;;;;;6.81;100.00;101211.77;5053383;56;1136659;-67
2023/04/02 15:24:37;;;;;;;40.33;19.17;;;;;;;6.82;100.00;101213.00;5009509;55;1136882;-70
2023/04/02 15:29:53;;;;;;;10.05;5.15;;;;;;;6.93;100.00;101224.27;5008849;57;1140956;-70
2023/04/02 15:35:21;;;;;;;6.93;3.43;;;;;;;6.95;100.00;101235.11;5083792;55;1138792;-72
2023/04/02 15:41:04;;;;;;;39.38;16.55;;;;;;;6.89;100.00;101234.55;5097913;56;1136638;-67
2023/04/02 15:46:30;;;;;;;16.47;6.63;;;;;;;6.83;100.00;101242.31;5049420;55;1140967;-72
2023/04/02 15:52:09;;;;;;;18.30;6.70;;;;;;;6.98;100.00;101255.14;5049286;56;1138657;-69
2023/04/02 15:58:09;;;;;;;17.07;6.20;;;;;;;7.09;100.00;101265.11;5034306;56;1138840;-69
2023/04/02 16:03:42;;;;;;;3.77;2.33;;;;;;;7.12;100.00;101264.49;5029717;55;1138807;-68
2023/04/02 16:09:10;;;;;;;6.75;3.17;;;;;;;7.22;93.60;101278.86;4977723;56;1136603;-67
2023/04/02 16:14:31;;;;;;;6.92;2.40;;;;;;;7.24;90.35;101277.47;4992607;57;1134508;-68
2023/04/02 16:19:43;;;;;;;3.67;1.90;;;;;;;7.21;82.91;101298.67;4934473;57;1134582;-69
2023/04/02 16:25:02;;;;;;;10.63;2.55;;;;;;;7.22;85.26;101305.17;4933823;57;1134546;-67
2023/04/02 16:30:41;;;;;;;6.30;1.90;;;;;;;7.22;85.29;101316.16;5005294;56;1136688;-71
2023/04/02 16:35:57;;;;;;;3.73;1.90;;;;;;;7.18;83.17;101331.23;4984552;57;1134827;-66
2023/04/02 16:41:10;;;;;;;3.53;2.03;;;;;;;7.04;79.34;101345.55;4974897;58;1134773;-68
2023/04/02 16:46:37;;;;;;;2.67;2.10;;;;;;;6.87;78.37;101350.36;5039804;56;1134982;-67
2023/04/02 16:52:13;;;;;;;8.30;3.00;;;;;;;6.71;79.13;101362.54;4988287;58;1134698;-67
2023/04/02 16:57:44;;;;;;;8.30;3.25;;;;;;;6.54;79.55;101384.83;5071079;56;1134724;-69
2023/04/02 17:03:25;;;;;;;5.10;2.27;;;;;;;6.33;78.68;101391.46;4961664;56;1134776;-67
2023/04/02 17:08:43;;;;;;;10.13;4.70;;;;;;;6.09;77.03;101400.47;5009041;57;1134869;-68
2023/04/02 17:14:04;;;;;;;15.95;6.12;;;;;;;5.87;79.52;101407.09;4951338;56;1136827;-68
2023/04/02 17:19:05;;;;;;;16.23;6.70;;;;;;;5.64;79.27;101405.94;4993960;57;1136748;-74
2023/04/02 17:24:30;;;;;;;13.20;4.43;;;;;;;5.43;79.39;101428.67;4927854;58;1136643;-75
2023/04/02 17:29:49;;;;;;;14.35;5.45;;;;;;;5.24;81.09;101436.45;4927906;57;1136917;-74
2023/04/02 17:34:56;;;;;;;8.83;3.70;;;;;;;5.13;82.02;101446.52;5032959;55;1137096;-74
2023/04/02 17:40:27;;;;;;;17.27;5.90;;;;;;;5.06;81.74;101448.13;4931712;58;1134826;-75
2023/04/02 17:45:49;;;;;;;16.97;6.27;;;;;;;4.95;81.80;101473.47;4969183;57;1136751;-74
2023/04/02 17:51:29;;;;;;;19.63;6.27;;;;;;;4.81;81.39;101481.86;4940878;56;1136745;-76
2023/04/02 17:56:59;;;;;;;14.00;4.87;;;;;;;4.73;82.99;101481.32;4937319;57;1137038;-74
2023/04/02 18:02:30;;;;;;;17.67;9.07;;;;;;;4.66;83.43;101497.31;4974374;57;1136591;-72
2023/04/02 18:07:58;;;;;;;20.60;8.50;;;;;;;4.58;84.57;101514.16;4964510;57;1136691;-75
2023/04/02 18:13:11;;;;;;;15.00;5.83;;;;;;;4.50;84.25;101518.84;4953578;57;1136926;-74
2023/04/02 18:18:45;;;;;;;15.58;5.50;;;;;;;4.38;84.74;101526.30;4967680;57;1136684;-73
2023/04/02 18:24:08;;;;;;;30.88;10.90;;;;;;;4.30;85.53;101544.02;4928957;57;1136878;-75
2023/04/02 18:29:42;;;;;;;14.43;3.80;;;;;;;4.28;86.64;101551.94;4913635;58;1139000;-74
2023/04/02 18:35:04;;;;;;;6.50;3.97;;;;;;;4.12;85.12;101563.42;4920012;57;1136716;-77
2023/04/02 18:40:59;;;;;;;11.13;5.77;;;;;;;4.03;85.57;101576.80;4928000;57;1134463;-72
2023/04/02 18:46:44;;;;;;;28.67;14.27;;;;;;;3.95;86.14;101580.14;4923582;57;1136568;-76
2023/04/02 18:51:55;;;;;;;31.87;13.47;;;;;;;3.86;86.61;101585.21;4900615;58;1138857;-76
2023/04/02 18:57:10;;;;;;;23.00;9.23;;;;;;;3.83;87.15;101593.61;4895733;57;1139064;-76
2023/04/02 19:02:26;;;;;;;14.83;5.17;;;;;;;3.78;87.21;101600.77;4905525;57;1136935;-76
2023/04/02 19:07:36;;;;;;;8.73;4.47;;;;;;;3.66;86.63;101611.63;4998416;56;1136972;-74
2023/04/02 19:12:41;;;;;;;20.52;6.85;;;;;;;3.61;87.62;101615.69;4920043;57;1134781;-76
2023/04/02 19:17:57;;;;;;;25.60;7.83;;;;;;;3.54;87.63;101616.32;4949676;57;1136922;-74
2023/04/02 19:23:41;;;;;;;11.30;4.63;;;;;;;3.44;87.54;101620.59;4883816;57;1136585;-74
2023/04/02 19:29:24;;;;;;;17.30;5.10;;;;;;;3.38;87.13;101631.22;4925368;57;1136701;-75
2023/04/02 19:34:40;;;;;;;9.27;3.23;;;;;;;3.34;87.98;101633.55;4865259;58;1136716;-75
2023/04/02 19:40:03;;;;;;;14.68;5.45;;;;;;;3.27;87.75;101638.08;4947262;57;1134709;-75
2023/04/02 19:45:32;;;;;;;13.25;7.28;;;;;;;3.21;88.38;101647.88;5017119;57;1136719;-73
2023/04/02 19:50:38;;;;;;;8.37;3.83;;;;;;;3.18;88.49;101650.13;4945103;58;1136757;-72
2023/04/02 19:55:45;;;;;;;9.67;3.90;;;;;;;3.13;87.60;101649.39;4938443;58;1134806;-76
2023/04/02 20:00:51;;;;;;;6.93;3.07;;;;;;;3.02;87.99;101647.55;5019420;57;1134724;-75
2023/04/02 20:05:58;;;;;;;12.97;4.40;;;;;;;2.99;87.38;101656.33;4990413;57;1134573;-75
2023/04/02 20:11:05;;;;;;;12.30;3.87;;;;;;;2.97;88.09;101664.66;5048483;56;1136689;-77
2023/04/02 20:16:10;;;;;;;9.70;3.57;;;;;;;2.94;88.06;101672.56;4956051;57;1136709;-75
2023/04/02 20:21:17;;;;;;;5.80;2.47;;;;;;;2.88;88.15;101676.67;4869815;57;1134643;-74
2023/04/02 20:26:22;;;;;;;5.72;2.55;;;;;;;2.81;88.01;101681.64;4877165;57;1134638;-75
2023/04/02 20:31:29;;;;;;;8.78;3.42;;;;;;;2.64;88.04;101687.77;4948871;57;1134645;-76
2023/04/02 20:36:35;;;;;;;5.03;2.30;;;;;;;2.64;88.04;101687.77;4945595;57;1134578;-73
2023/04/02 20:41:40;;;;;;;8.83;2.87;;;;;;;2.60;88.85;101691.37;4883940;56;1134629;-73
2023/04/02 20:46:46;;;;;;;6.40;2.77;;;;;;;2.58;89.88;101704.91;4979046;56;1134725;-74
2023/04/02 20:51:52;;;;;;;9.97;3.37;;;;;;;2.58;89.87;101709.69;5013765;56;1134715;-76
2023/04/02 20:56:58;;;;;;;10.07;5.30;;;;;;;2.51;90.15;101715.95;4971335;56;1134645;-75
2023/04/02 21:02:03;;;;;;;6.80;2.50;;;;;;;2.41;90.28;101718.39;4990239;56;1136791;-75
2023/04/02 21:07:11;;;;;;;10.13;2.37;;;;;;;2.43;91.08;101729.66;4990309;57;1134719;-77
2023/04/02 21:12:17;;;;;;;7.63;2.57;;;;;;;2.35;91.44;101731.58;4952937;57;1136813;-77
2023/04/02 21:17:22;;;;;;;8.78;2.40;;;;;;;2.30;92.32;101736.91;4969180;57;1134573;-77
2023/04/02 21:22:29;;;;;;;8.78;3.52;;;;;;;2.28;92.35;101742.64;4942410;57;1134848;-76
2023/04/02 21:27:35;;;;;;;9.95;3.70;;;;;;;2.20;92.90;101747.16;4972449;57;1134696;-77
2023/04/02 21:32:40;;;;;;;10.60;2.60;;;;;;;2.18;93.26;101750.70;4896073;58;1134685;-74
2023/04/02 21:37:46;;;;;;;8.15;2.72;;;;;;;2.08;93.72;101757.89;4975984;57;1136745;-76
2023/04/02 21:42:54;;;;;;;6.73;2.37;;;;;;;2.02;94.57;101765.40;4964065;56;1134484;-77
2023/04/02 21:47:59;;;;;;;10.93;2.60;;;;;;;2.01;95.19;101766.29;4868188;58;1134538;-75
2023/04/02 21:53:05;;;;;;;9.87;3.80;;;;;;;1.99;95.45;101766.77;4948752;56;1136605;-74
2023/04/02 21:58:10;;;;;;;6.87;2.67;;;;;;;1.97;95.94;101771.19;4968158;56;1134828;-75
2023/04/02 22:03:16;;;;;;;6.40;2.30;;;;;;;1.87;96.03;101778.78;4849317;58;1134713;-76
2023/04/02 22:08:22;;;;;;;24.97;3.90;;;;;;;1.83;96.72;101778.45;4967249;56;1134623;-76
2023/04/02 22:13:27;;;;;;;7.47;2.30;;;;;;;1.79;98.28;101781.16;4924255;58;1136728;-76
2023/04/02 22:18:33;;;;;;;10.17;2.67;;;;;;;1.74;98.26;101786.45;4933893;57;1134528;-75
2023/04/02 22:23:40;;;;;;;7.93;2.90;;;;;;;1.70;98.62;101808.27;5101406;55;1136700;-76
2023/04/02 22:28:46;;;;;;;8.43;2.50;;;;;;;1.66;98.68;101806.19;5065282;56;1134650;-76
2023/04/02 22:33:54;;;;;;;9.13;3.07;;;;;;;1.65;99.45;101809.69;5098866;56;1135084;-75
2023/04/02 22:39:00;;;;;;;8.17;2.83;;;;;;;1.62;99.50;101814.09;5101417;56;1134603;-74
2023/04/02 22:44:06;;;;;;;9.97;2.50;;;;;;;1.57;99.50;101812.87;5121132;56;1134656;-76
2023/04/02 22:49:17;;;;;;;12.30;2.77;;;;;;;1.55;100.00;101812.48;5185074;55;1134555;-75
2023/04/02 22:54:19;;;;;;;9.93;2.97;;;;;;;1.53;100.00;101816.42;5100665;56;1138966;-76
2023/04/02 22:59:25;;;;;;;10.35;3.55;;;;;;;1.46;100.00;101820.50;5157304;55;1136946;-76
2023/04/02 23:04:30;;;;;;;14.10;2.77;;;;;;;1.37;100.00;101826.31;5017502;55;1138915;-76
2023/04/02 23:09:36;;;;;;;8.95;2.40;;;;;;;1.33;100.00;101819.87;5088396;55;1138819;-74
2023/04/02 23:14:42;;;;;;;6.87;2.50;;;;;;;1.33;100.00;101825.95;5120419;56;1136819;-76
2023/04/02 23:19:47;;;;;;;8.73;3.20;;;;;;;1.34;100.00;101830.28;5142755;55;1136687;-74
2023/04/02 23:24:53;;;;;;;14.37;2.87;;;;;;;1.25;100.00;101823.05;5099464;55;1136662;-76
2023/04/02 23:29:59;;;;;;;14.27;3.30;;;;;;;1.26;100.00;101828.69;5118983;56;1138749;-74
2023/04/02 23:35:05;;;;;;;9.00;2.50;;;;;;;1.22;100.00;101830.95;5098884;56;1138989;-75
2023/04/02 23:40:11;;;;;;;11.33;1.83;;;;;;;1.22;100.00;101830.95;5099193;56;1136665;-74
2023/04/02 23:45:18;;;;;;;7.10;2.10;;;;;;;1.17;100.00;101830.16;5152968;55;1138743;-76
2023/04/02 23:50:23;;;;;;;9.70;2.47;;;;;;;1.12;100.00;101833.28;5184933;55;1136573;-74
2023/04/02 23:55:29;;;;;;;8.95;2.17;;;;;;;1.09;100.00;101836.80;5045680;56;1136708;-76
